Time;durP1;ratioP1;P1;durP2;ratioP2;P2;SDS_P1;SDS_P2;PMS_P1;PMS_P2;Temp;Humidity;BMP_temperature;BMP_pressure;BME280_temperature;BME280_humidity;BME280_pressure;Samples;Min_cycle;Max_cycle;Signal;HPM_P1;HPM_P2
2021/07/30 00:01:35;;;;;;;7.63;4.00;;;;;;;;;;4979844;28;20760;-82
2021/07/30 00:04:03;;;;;;;6.73;4.00;;;;;;;;;;4975712;28;20589;-82
2021/07/30 00:06:30;;;;;;;6.10;3.77;;;;;;;;;;4993338;28;20208;-80
2021/07/30 00:08:57;;;;;;;8.70;4.20;;;;;;;;;;4994999;28;20221;-80
2021/07/30 00:11:24;;;;;;;7.70;4.33;;;;;;;;;;4990649;28;20328;-81
2021/07/30 00:13:52;;;;;;;11.10;4.33;;;;;;;;;;4969730;28;20244;-80
2021/07/30 00:16:19;;;;;;;9.77;4.27;;;;;;;;;;4978531;28;20217;-81
2021/07/30 00:18:46;;;;;;;9.57;4.37;;;;;;;;;;4979143;28;20693;-80
2021/07/30 00:21:15;;;;;;;9.43;4.20;;;;;;;;;;4976616;28;20220;-81
2021/07/30 00:23:42;;;;;;;6.03;4.10;;;;;;;;;;4970383;28;20232;-80
2021/07/30 00:26:09;;;;;;;9.63;4.40;;;;;;;;;;4971423;28;20688;-81
2021/07/30 00:28:36;;;;;;;7.43;4.10;;;;;;;;;;4974622;28;20731;-80
2021/07/30 00:31:03;;;;;;;7.97;4.40;;;;;;;;;;4969633;28;20252;-80
2021/07/30 00:33:31;;;;;;;7.53;3.60;;;;;;;;;;4969358;28;20606;-81
2021/07/30 00:35:58;;;;;;;8.30;3.63;;;;;;;;;;4971202;28;20212;-81
2021/07/30 00:38:26;;;;;;;6.77;3.93;;;;;;;;;;4972596;28;20270;-81
2021/07/30 00:40:53;;;;;;;6.77;4.20;;;;;;;;;;4972258;28;20220;-82
2021/07/30 00:43:20;;;;;;;6.93;4.30;;;;;;;;;;4972312;28;20226;-81
2021/07/30 00:45:48;;;;;;;7.60;3.97;;;;;;;;;;4972158;28;20214;-81
2021/07/30 00:48:15;;;;;;;8.90;3.90;;;;;;;;;;4971554;28;20664;-81
2021/07/30 00:50:43;;;;;;;6.70;4.10;;;;;;;;;;4976937;28;20680;-81
2021/07/30 00:53:10;;;;;;;8.60;4.37;;;;;;;;;;4972228;28;20736;-81
2021/07/30 00:55:39;;;;;;;7.83;4.27;;;;;;;;;;4971221;28;20220;-81
2021/07/30 00:58:06;;;;;;;7.07;4.70;;;;;;;;;;4972109;28;20272;-81
2021/07/30 01:00:33;;;;;;;9.97;4.13;;;;;;;;;;4970043;28;20607;-80
2021/07/30 01:03:01;;;;;;;6.00;4.00;;;;;;;;;;4968220;28;20237;-81
2021/07/30 01:05:28;;;;;;;5.60;4.00;;;;;;;;;;4976782;28;20617;-81
2021/07/30 01:07:56;;;;;;;7.87;4.33;;;;;;;;;;4973434;28;20237;-81
2021/07/30 01:10:23;;;;;;;10.47;4.27;;;;;;;;;;4974184;28;20776;-81
2021/07/30 01:12:52;;;;;;;10.13;4.50;;;;;;;;;;4972923;28;20307;-80
2021/07/30 01:15:19;;;;;;;10.87;4.70;;;;;;;;;;4974431;28;20229;-81
2021/07/30 01:17:46;;;;;;;7.57;4.10;;;;;;;;;;4975148;28;20206;-80
2021/07/30 01:20:14;;;;;;;7.63;4.03;;;;;;;;;;4972702;28;20217;-81
2021/07/30 01:22:49;;;;;;;8.80;4.70;;;;;;;;;;4973619;28;20595;-81
2021/07/30 01:25:16;;;;;;;7.10;4.47;;;;;;;;;;4975335;28;20214;-81
2021/07/30 01:27:44;;;;;;;9.13;4.83;;;;;;;;;;4976349;28;20296;-80
2021/07/30 01:30:11;;;;;;;6.63;4.40;;;;;;;;;;4971397;28;20324;-81
2021/07/30 01:32:38;;;;;;;13.50;5.37;;;;;;;;;;4973892;28;20222;-81
2021/07/30 01:35:06;;;;;;;6.70;3.97;;;;;;;;;;4970148;28;20533;-80
2021/07/30 01:37:33;;;;;;;13.67;4.43;;;;;;;;;;4975261;28;20216;-80
2021/07/30 01:40:02;;;;;;;8.67;4.47;;;;;;;;;;4972610;28;20301;-81
2021/07/30 01:42:29;;;;;;;6.33;3.83;;;;;;;;;;4973798;28;20241;-81
2021/07/30 01:44:56;;;;;;;7.70;4.20;;;;;;;;;;4979067;28;20279;-81
2021/07/30 01:47:23;;;;;;;7.40;4.47;;;;;;;;;;4975049;28;20269;-81
2021/07/30 01:49:51;;;;;;;6.00;4.50;;;;;;;;;;4992554;28;20242;-80
2021/07/30 01:52:18;;;;;;;9.57;4.80;;;;;;;;;;4992093;28;20285;-80
2021/07/30 01:54:45;;;;;;;10.43;4.37;;;;;;;;;;4987635;28;20211;-81
2021/07/30 01:57:16;;;;;;;10.03;4.40;;;;;;;;;;4976178;28;20534;-81
2021/07/30 01:59:43;;;;;;;8.00;4.50;;;;;;;;;;4971463;28;20653;-81
2021/07/30 02:02:10;;;;;;;7.37;4.27;;;;;;;;;;4975021;28;20288;-81
2021/07/30 02:04:37;;;;;;;6.93;4.13;;;;;;;;;;4981197;28;20272;-81
2021/07/30 02:07:04;;;;;;;15.70;4.60;;;;;;;;;;4975645;28;20217;-81
2021/07/30 02:09:32;;;;;;;8.23;3.63;;;;;;;;;;4974316;28;20293;-81
2021/07/30 02:11:59;;;;;;;7.17;4.00;;;;;;;;;;4977205;28;20221;-81
2021/07/30 02:14:27;;;;;;;9.03;4.20;;;;;;;;;;4973311;28;20312;-82
2021/07/30 02:16:54;;;;;;;5.23;3.90;;;;;;;;;;4975313;28;20249;-81
2021/07/30 02:19:22;;;;;;;6.47;4.20;;;;;;;;;;4971543;28;20206;-82
2021/07/30 02:21:50;;;;;;;8.07;4.53;;;;;;;;;;4972093;28;20214;-81
2021/07/30 02:24:17;;;;;;;9.33;4.20;;;;;;;;;;4976380;28;20283;-81
2021/07/30 02:26:45;;;;;;;7.83;4.47;;;;;;;;;;4972300;28;20225;-81
2021/07/30 02:29:12;;;;;;;7.47;4.63;;;;;;;;;;4972955;28;20210;-81
2021/07/30 02:31:40;;;;;;;12.93;5.00;;;;;;;;;;4972977;28;20230;-82
2021/07/30 02:34:08;;;;;;;9.57;4.63;;;;;;;;;;4971487;28;20321;-81
2021/07/30 02:36:36;;;;;;;6.47;4.30;;;;;;;;;;4974861;28;20584;-81
2021/07/30 02:39:03;;;;;;;7.17;4.57;;;;;;;;;;4969828;28;20269;-81
2021/07/30 02:41:30;;;;;;;7.37;4.03;;;;;;;;;;4970852;28;20729;-80
2021/07/30 02:43:58;;;;;;;7.00;3.87;;;;;;;;;;4973628;28;20272;-81
2021/07/30 02:46:25;;;;;;;5.90;4.40;;;;;;;;;;4972852;28;20213;-81
2021/07/30 02:48:53;;;;;;;9.37;4.60;;;;;;;;;;4965311;28;20592;-81
2021/07/30 02:51:21;;;;;;;11.27;4.33;;;;;;;;;;4972624;28;20601;-81
2021/07/30 02:53:48;;;;;;;9.47;4.47;;;;;;;;;;4970169;28;20602;-81
2021/07/30 02:56:15;;;;;;;9.77;4.17;;;;;;;;;;4974260;28;20696;-80
2021/07/30 02:58:42;;;;;;;11.23;4.17;;;;;;;;;;4972485;28;20212;-80
2021/07/30 03:01:09;;;;;;;8.10;4.43;;;;;;;;;;4974623;28;20287;-80
2021/07/30 03:03:36;;;;;;;9.73;4.43;;;;;;;;;;4975018;28;20235;-81
2021/07/30 03:06:05;;;;;;;8.97;4.77;;;;;;;;;;4969887;28;20205;-81
2021/07/30 03:08:32;;;;;;;6.63;4.03;;;;;;;;;;4974020;28;20212;-80
2021/07/30 03:10:59;;;;;;;9.73;4.80;;;;;;;;;;4975156;28;20221;-80
2021/07/30 03:13:26;;;;;;;7.53;4.57;;;;;;;;;;4972546;28;20333;-81
2021/07/30 03:15:54;;;;;;;7.60;4.67;;;;;;;;;;4973826;28;20209;-80
2021/07/30 03:18:21;;;;;;;8.03;4.67;;;;;;;;;;4972453;28;20205;-80
2021/07/30 03:20:49;;;;;;;10.93;4.70;;;;;;;;;;4974777;28;20208;-81
2021/07/30 03:23:18;;;;;;;7.67;4.70;;;;;;;;;;4970208;28;20241;-80
2021/07/30 03:25:45;;;;;;;6.70;4.43;;;;;;;;;;4971478;28;20221;-81
2021/07/30 03:28:12;;;;;;;10.43;5.20;;;;;;;;;;4974976;28;20204;-81
2021/07/30 03:30:39;;;;;;;9.57;4.93;;;;;;;;;;4976987;28;20229;-80
2021/07/30 03:33:06;;;;;;;6.47;4.40;;;;;;;;;;4990744;28;20578;-79
2021/07/30 03:35:33;;;;;;;10.50;4.33;;;;;;;;;;4989918;28;20251;-79
2021/07/30 03:38:01;;;;;;;7.13;4.57;;;;;;;;;;4980418;28;20223;-80
2021/07/30 03:40:29;;;;;;;7.97;4.40;;;;;;;;;;4972602;28;20296;-80
2021/07/30 03:42:56;;;;;;;10.53;4.67;;;;;;;;;;4971498;28;20600;-80
2021/07/30 03:45:23;;;;;;;8.77;5.20;;;;;;;;;;4973590;28;20711;-81
2021/07/30 03:47:51;;;;;;;6.87;4.40;;;;;;;;;;4966552;28;20202;-80
2021/07/30 03:50:18;;;;;;;6.87;4.27;;;;;;;;;;4970923;28;20206;-80
2021/07/30 03:52:45;;;;;;;6.93;4.63;;;;;;;;;;4971604;28;20653;-80
2021/07/30 03:55:12;;;;;;;8.63;4.60;;;;;;;;;;4967933;28;20210;-81
2021/07/30 03:57:41;;;;;;;6.93;4.10;;;;;;;;;;4968477;28;20219;-81
2021/07/30 04:00:08;;;;;;;7.10;4.17;;;;;;;;;;4975619;28;20603;-81
2021/07/30 04:02:36;;;;;;;10.13;4.90;;;;;;;;;;4972473;28;20226;-81
2021/07/30 04:05:03;;;;;;;7.00;4.10;;;;;;;;;;4975503;28;20326;-81
2021/07/30 04:07:30;;;;;;;7.73;4.40;;;;;;;;;;4975921;28;20207;-81
2021/07/30 04:09:58;;;;;;;10.23;4.67;;;;;;;;;;4975015;28;20625;-81
2021/07/30 04:12:25;;;;;;;8.33;4.63;;;;;;;;;;4971009;28;20232;-81
2021/07/30 04:14:53;;;;;;;14.53;4.90;;;;;;;;;;4964770;28;20734;-81
2021/07/30 04:17:21;;;;;;;12.30;4.50;;;;;;;;;;4970289;28;20237;-81
2021/07/30 04:19:48;;;;;;;10.13;4.80;;;;;;;;;;4973551;28;20209;-81
2021/07/30 04:22:15;;;;;;;9.10;4.03;;;;;;;;;;4978121;28;20681;-81
2021/07/30 04:24:42;;;;;;;6.33;4.00;;;;;;;;;;4973981;28;20570;-81
2021/07/30 04:27:09;;;;;;;9.57;4.10;;;;;;;;;;4974187;28;20306;-81
2021/07/30 04:29:40;;;;;;;5.60;3.67;;;;;;;;;;4973980;28;20301;-81
2021/07/30 04:32:10;;;;;;;7.70;3.20;;;;;;;;;;4973131;28;20316;-81
2021/07/30 04:34:37;;;;;;;7.00;3.60;;;;;;;;;;4975229;28;20221;-81
2021/07/30 04:37:04;;;;;;;9.90;3.30;;;;;;;;;;4969702;28;20266;-81
2021/07/30 04:39:31;;;;;;;5.73;2.87;;;;;;;;;;4971194;28;20216;-81
2021/07/30 04:41:58;;;;;;;6.00;3.10;;;;;;;;;;4976922;28;20217;-81
2021/07/30 04:44:25;;;;;;;8.30;2.90;;;;;;;;;;4971391;28;20215;-81
2021/07/30 04:46:53;;;;;;;5.00;2.70;;;;;;;;;;4969827;28;20578;-81
2021/07/30 04:49:21;;;;;;;7.10;2.97;;;;;;;;;;4972969;28;20284;-82
2021/07/30 04:51:48;;;;;;;7.83;3.30;;;;;;;;;;4975576;28;20286;-81
2021/07/30 04:54:15;;;;;;;4.73;2.60;;;;;;;;;;4974449;28;20326;-82
2021/07/30 04:56:42;;;;;;;2.93;2.20;;;;;;;;;;4974868;28;20234;-81
2021/07/30 04:59:10;;;;;;;5.80;2.70;;;;;;;;;;4974117;28;20220;-81
2021/07/30 05:01:41;;;;;;;7.40;2.80;;;;;;;;;;4978045;28;20702;-81
2021/07/30 05:04:09;;;;;;;4.90;2.77;;;;;;;;;;4972225;28;20241;-81
2021/07/30 05:06:37;;;;;;;4.23;2.67;;;;;;;;;;4970344;28;20214;-81
2021/07/30 05:09:05;;;;;;;6.83;2.90;;;;;;;;;;4970296;28;20245;-82
2021/07/30 05:11:32;;;;;;;4.83;2.83;;;;;;;;;;4976736;28;20313;-81
2021/07/30 05:13:59;;;;;;;6.57;3.00;;;;;;;;;;5041607;23;20240;-84
2021/07/30 05:16:27;;;;;;;5.17;2.90;;;;;;;;;;5016263;28;20339;-84
2021/07/30 05:18:54;;;;;;;4.30;2.67;;;;;;;;;;5046724;28;20286;-84
2021/07/30 05:21:23;;;;;;;6.43;2.80;;;;;;;;;;5046362;28;20208;-85
2021/07/30 05:23:52;;;;;;;6.20;2.47;;;;;;;;;;5020008;28;20239;-85
2021/07/30 05:26:19;;;;;;;5.93;2.80;;;;;;;;;;5009456;28;20259;-86
2021/07/30 05:28:46;;;;;;;10.13;2.60;;;;;;;;;;5009884;28;20216;-86
2021/07/30 05:31:22;;;;;;;9.47;2.80;;;;;;;;;;5004039;28;20279;-85
2021/07/30 05:33:50;;;;;;;8.17;2.77;;;;;;;;;;5001135;28;20742;-87
2021/07/30 05:36:21;;;;;;;7.50;3.00;;;;;;;;;;4998409;28;20219;-85
2021/07/30 11:15:07;;;;;;;4.87;2.13;;;;;;;;;;5025189;23;20245;-81
2021/07/30 11:17:36;;;;;;;3.80;2.20;;;;;;;;;;5033655;28;20269;-80
2021/07/30 11:20:04;;;;;;;3.20;2.10;;;;;;;;;;5023900;28;20287;-80
2021/07/30 11:22:31;;;;;;;2.20;1.43;;;;;;;;;;5032174;28;20207;-79
2021/07/30 11:24:58;;;;;;;6.10;1.97;;;;;;;;;;5001986;28;20276;-80
2021/07/30 11:27:25;;;;;;;5.13;1.80;;;;;;;;;;5002024;28;20215;-80
2021/07/30 11:29:53;;;;;;;4.10;2.00;;;;;;;;;;4996159;28;20208;-81
2021/07/30 11:32:23;;;;;;;6.00;1.97;;;;;;;;;;5008780;28;20765;-80
2021/07/30 11:34:51;;;;;;;3.53;1.80;;;;;;;;;;5008642;28;20315;-80
2021/07/30 11:37:19;;;;;;;7.23;2.30;;;;;;;;;;4996340;28;20691;-80
2021/07/30 11:39:47;;;;;;;5.30;2.20;;;;;;;;;;5004851;28;20295;-80
2021/07/30 11:42:16;;;;;;;3.73;2.00;;;;;;;;;;5004498;28;21232;-81
2021/07/30 11:44:44;;;;;;;4.80;2.03;;;;;;;;;;4996892;28;20315;-80
2021/07/30 11:47:12;;;;;;;3.40;2.07;;;;;;;;;;5008560;28;20221;-80
2021/07/30 11:49:41;;;;;;;5.53;1.97;;;;;;;;;;4999918;28;20241;-79
2021/07/30 11:52:09;;;;;;;3.67;1.87;;;;;;;;;;5004708;28;20246;-81
2021/07/30 11:54:37;;;;;;;3.50;2.10;;;;;;;;;;5011080;28;20241;-81
2021/07/30 11:57:05;;;;;;;6.70;2.00;;;;;;;;;;5008916;28;20208;-81
2021/07/30 11:59:46;;;;;;;4.27;2.20;;;;;;;;;;5001822;28;20303;-79
2021/07/30 12:02:13;;;;;;;2.40;1.97;;;;;;;;;;5014715;28;20331;-80
2021/07/30 12:04:51;;;;;;;4.60;1.80;;;;;;;;;;5012318;28;20600;-80
2021/07/30 12:07:19;;;;;;;7.10;2.57;;;;;;;;;;5012115;28;20208;-80
2021/07/30 12:09:48;;;;;;;4.93;2.00;;;;;;;;;;4995040;28;20296;-82
2021/07/30 12:12:15;;;;;;;3.73;2.10;;;;;;;;;;5006152;28;20334;-81
2021/07/30 12:14:47;;;;;;;4.40;2.40;;;;;;;;;;5005407;28;20319;-80
2021/07/30 12:17:15;;;;;;;4.57;2.10;;;;;;;;;;4996548;28;20216;-80
2021/07/30 12:19:42;;;;;;;4.37;2.37;;;;;;;;;;5002697;28;20677;-80
2021/07/30 12:22:11;;;;;;;6.33;2.10;;;;;;;;;;5009618;28;20668;-80
2021/07/30 12:24:48;;;;;;;3.13;1.80;;;;;;;;;;5003820;28;20233;-79
2021/07/30 12:27:19;;;;;;;5.37;2.37;;;;;;;;;;4998255;28;20583;-80
2021/07/30 12:29:47;;;;;;;6.00;2.53;;;;;;;;;;5005335;28;20687;-79
2021/07/30 12:32:15;;;;;;;5.73;2.03;;;;;;;;;;5009001;28;20315;-80
2021/07/30 12:34:42;;;;;;;3.07;2.10;;;;;;;;;;4997594;28;20229;-79
2021/07/30 12:37:11;;;;;;;3.20;1.97;;;;;;;;;;5008478;28;20626;-80
2021/07/30 12:39:46;;;;;;;3.40;2.03;;;;;;;;;;5001404;28;20299;-80
2021/07/30 12:42:23;;;;;;;4.20;2.00;;;;;;;;;;5010972;28;20212;-79
2021/07/30 12:45:12;;;;;;;4.90;2.03;;;;;;;;;;5011358;28;20239;-80
2021/07/30 12:47:57;;;;;;;4.77;2.20;;;;;;;;;;5004242;28;20204;-80
2021/07/30 12:50:25;;;;;;;7.40;2.37;;;;;;;;;;5005708;28;20272;-81
2021/07/30 12:53:13;;;;;;;4.33;1.77;;;;;;;;;;5012267;28;20242;-81
2021/07/30 12:56:02;;;;;;;4.13;2.00;;;;;;;;;;5004786;28;20723;-80
2021/07/30 12:58:30;;;;;;;6.53;2.40;;;;;;;;;;5005544;28;20206;-80
2021/07/30 13:00:58;;;;;;;6.97;2.60;;;;;;;;;;5005466;28;20642;-80
2021/07/30 13:03:27;;;;;;;5.03;2.40;;;;;;;;;;4995820;28;20291;-81
2021/07/30 13:05:56;;;;;;;6.13;2.10;;;;;;;;;;5003187;28;20683;-81
2021/07/30 13:08:25;;;;;;;5.60;2.30;;;;;;;;;;5013019;28;20251;-80
2021/07/30 13:10:53;;;;;;;4.60;2.20;;;;;;;;;;5012124;28;20212;-80
2021/07/30 13:13:22;;;;;;;6.70;2.20;;;;;;;;;;5010342;28;20228;-81
2021/07/30 13:15:50;;;;;;;3.23;2.07;;;;;;;;;;5003988;28;20208;-80
2021/07/30 13:18:17;;;;;;;4.63;2.00;;;;;;;;;;5009759;28;20209;-80
2021/07/30 13:20:46;;;;;;;3.93;2.00;;;;;;;;;;5010568;28;20577;-80
2021/07/30 13:23:13;;;;;;;6.40;2.33;;;;;;;;;;5011792;28;20209;-80
2021/07/30 13:25:41;;;;;;;4.33;2.40;;;;;;;;;;5003354;28;20627;-81
2021/07/30 13:28:09;;;;;;;6.40;2.77;;;;;;;;;;5014136;28;20363;-80
2021/07/30 13:30:37;;;;;;;5.03;2.70;;;;;;;;;;5005223;28;20668;-81
2021/07/30 13:33:04;;;;;;;4.90;2.13;;;;;;;;;;5013468;28;20227;-79
2021/07/30 13:35:32;;;;;;;4.23;2.40;;;;;;;;;;5014088;28;20727;-81
2021/07/30 13:37:59;;;;;;;5.17;2.33;;;;;;;;;;5008142;28;20215;-80
2021/07/30 13:40:26;;;;;;;4.50;2.20;;;;;;;;;;5005043;28;20304;-80
2021/07/30 13:42:54;;;;;;;3.30;2.10;;;;;;;;;;5008255;28;20295;-80
2021/07/30 13:45:22;;;;;;;4.17;2.10;;;;;;;;;;4999812;28;20711;-79
2021/07/30 13:47:49;;;;;;;4.37;2.20;;;;;;;;;;5000737;28;20707;-80
2021/07/30 13:50:16;;;;;;;4.63;2.40;;;;;;;;;;5002054;28;20215;-81
2021/07/30 13:52:43;;;;;;;4.17;2.27;;;;;;;;;;5004122;28;20234;-81
2021/07/30 13:55:11;;;;;;;5.80;2.23;;;;;;;;;;5005882;28;20323;-80
2021/07/30 13:57:38;;;;;;;4.67;2.50;;;;;;;;;;5008096;28;20228;-81
2021/07/30 14:00:07;;;;;;;7.00;2.20;;;;;;;;;;5002577;28;20247;-81
2021/07/30 14:02:34;;;;;;;3.53;2.23;;;;;;;;;;4999436;28;20205;-81
2021/07/30 14:05:02;;;;;;;4.27;2.27;;;;;;;;;;5008995;28;20287;-81
2021/07/30 14:07:30;;;;;;;4.60;2.70;;;;;;;;;;4999402;28;20223;-81
2021/07/30 14:09:57;;;;;;;7.73;2.57;;;;;;;;;;5001811;28;20303;-80
2021/07/30 14:12:24;;;;;;;5.93;2.20;;;;;;;;;;5010348;28;20413;-80
2021/07/30 14:14:51;;;;;;;3.77;1.97;;;;;;;;;;5008974;28;20232;-82
2021/07/30 14:17:20;;;;;;;3.47;2.03;;;;;;;;;;5013407;28;20688;-81
2021/07/30 14:19:47;;;;;;;4.80;2.20;;;;;;;;;;5005520;28;20593;-81
2021/07/30 14:22:14;;;;;;;3.07;2.03;;;;;;;;;;5013880;28;20220;-80
2021/07/30 14:24:41;;;;;;;4.00;2.30;;;;;;;;;;5008278;28;20238;-80
2021/07/30 14:27:10;;;;;;;3.83;2.30;;;;;;;;;;5005711;28;20208;-80
2021/07/30 14:29:37;;;;;;;5.03;1.73;;;;;;;;;;5005490;28;20215;-80
2021/07/30 14:32:05;;;;;;;4.43;2.30;;;;;;;;;;5010906;28;20204;-80
2021/07/30 14:34:33;;;;;;;6.43;2.40;;;;;;;;;;5011852;28;20228;-80
2021/07/30 14:37:01;;;;;;;5.50;2.20;;;;;;;;;;5003579;28;20691;-81
2021/07/30 14:39:29;;;;;;;3.60;2.30;;;;;;;;;;5011225;28;20258;-80
2021/07/30 14:41:57;;;;;;;6.00;2.30;;;;;;;;;;5010503;28;20208;-80
2021/07/30 14:44:27;;;;;;;2.87;2.10;;;;;;;;;;5002735;28;20232;-81
2021/07/30 14:46:55;;;;;;;5.37;2.23;;;;;;;;;;5010970;28;20295;-81
2021/07/30 14:49:22;;;;;;;3.77;2.40;;;;;;;;;;5006167;28;20709;-80
2021/07/30 14:51:51;;;;;;;4.13;2.33;;;;;;;;;;5001762;28;20850;-81
2021/07/30 14:54:18;;;;;;;6.73;2.20;;;;;;;;;;5005779;28;20232;-81
2021/07/30 14:56:45;;;;;;;5.83;2.63;;;;;;;;;;5006017;28;20219;-81
2021/07/30 14:59:12;;;;;;;3.83;2.33;;;;;;;;;;5001986;28;20295;-81
2021/07/30 15:01:40;;;;;;;5.70;2.10;;;;;;;;;;5008700;28;20207;-80
2021/07/30 15:04:07;;;;;;;3.50;2.10;;;;;;;;;;5013031;28;20247;-81
2021/07/30 15:06:34;;;;;;;4.43;2.10;;;;;;;;;;5007427;28;20216;-81
2021/07/30 15:09:03;;;;;;;3.60;2.10;;;;;;;;;;5009323;28;20295;-81
2021/07/30 15:11:30;;;;;;;3.10;2.23;;;;;;;;;;5010751;28;20208;-80
2021/07/30 15:13:57;;;;;;;4.07;2.17;;;;;;;;;;5014265;28;20618;-82
2021/07/30 15:16:24;;;;;;;3.00;2.30;;;;;;;;;;5011794;28;20216;-80
2021/07/30 15:18:51;;;;;;;4.30;2.40;;;;;;;;;;4999028;28;20216;-80
2021/07/30 15:21:20;;;;;;;3.57;2.20;;;;;;;;;;5012283;28;20243;-81
2021/07/30 15:23:47;;;;;;;4.20;2.10;;;;;;;;;;4998949;28;20319;-80
2021/07/30 15:26:16;;;;;;;3.33;2.23;;;;;;;;;;5011334;28;20243;-80
2021/07/30 15:28:44;;;;;;;3.57;2.20;;;;;;;;;;4995583;28;20212;-81
2021/07/30 15:31:12;;;;;;;6.00;2.40;;;;;;;;;;5006212;28;20200;-80
2021/07/30 15:33:39;;;;;;;4.83;2.33;;;;;;;;;;5009956;28;20232;-81
2021/07/30 15:36:12;;;;;;;4.07;2.50;;;;;;;;;;5001680;28;20208;-80
2021/07/30 15:38:39;;;;;;;5.50;2.30;;;;;;;;;;5003873;28;20212;-80
2021/07/30 15:41:06;;;;;;;4.27;2.43;;;;;;;;;;5007565;28;20290;-80
2021/07/30 15:43:35;;;;;;;5.30;2.30;;;;;;;;;;5010289;28;20224;-80
2021/07/30 15:46:03;;;;;;;4.47;2.67;;;;;;;;;;5005545;28;20213;-80
2021/07/30 15:48:31;;;;;;;5.60;2.50;;;;;;;;;;4991723;28;20207;-80
2021/07/30 15:50:58;;;;;;;5.47;2.53;;;;;;;;;;5008024;28;20303;-81
2021/07/30 15:53:25;;;;;;;4.20;2.50;;;;;;;;;;5009796;28;20310;-80
2021/07/30 15:55:52;;;;;;;4.90;2.73;;;;;;;;;;4996386;28;20292;-80
2021/07/30 15:58:20;;;;;;;4.63;2.53;;;;;;;;;;4997808;28;20228;-80
2021/07/30 16:00:48;;;;;;;4.37;2.73;;;;;;;;;;5003613;28;20223;-80
2021/07/30 16:03:15;;;;;;;3.97;2.37;;;;;;;;;;5005876;28;20211;-80
2021/07/30 16:05:42;;;;;;;7.03;2.90;;;;;;;;;;5003059;28;20232;-80
2021/07/30 16:08:10;;;;;;;6.63;2.63;;;;;;;;;;5008447;28;20568;-81
2021/07/30 16:10:37;;;;;;;3.57;2.40;;;;;;;;;;5002960;28;20212;-82
2021/07/30 16:13:04;;;;;;;5.03;2.43;;;;;;;;;;5003344;28;20228;-82
2021/07/30 16:15:35;;;;;;;7.80;3.00;;;;;;;;;;5015061;28;20228;-81
2021/07/30 16:18:03;;;;;;;7.13;2.50;;;;;;;;;;5004593;28;20213;-82
2021/07/30 16:20:31;;;;;;;4.33;2.40;;;;;;;;;;5011064;28;20301;-82
2021/07/30 16:22:58;;;;;;;3.47;2.40;;;;;;;;;;5006997;28;20943;-81
2021/07/30 16:25:25;;;;;;;7.50;2.57;;;;;;;;;;5004613;28;20224;-82
2021/07/30 16:27:52;;;;;;;6.47;2.63;;;;;;;;;;5014453;28;20672;-82
2021/07/30 16:30:19;;;;;;;6.27;3.13;;;;;;;;;;5009368;28;20664;-82
2021/07/30 16:32:46;;;;;;;5.03;2.63;;;;;;;;;;5003406;28;20636;-82
2021/07/30 16:35:15;;;;;;;4.33;2.40;;;;;;;;;;5013312;28;20294;-82
2021/07/30 16:37:42;;;;;;;4.33;2.67;;;;;;;;;;5012949;28;20204;-81
2021/07/30 16:40:10;;;;;;;4.13;2.70;;;;;;;;;;5009321;28;20324;-82
2021/07/30 16:42:37;;;;;;;5.17;2.40;;;;;;;;;;5007477;28;20665;-82
2021/07/30 16:45:05;;;;;;;4.63;2.83;;;;;;;;;;5013428;28;20235;-83
2021/07/30 16:47:32;;;;;;;4.80;2.60;;;;;;;;;;5017574;28;20268;-82
2021/07/30 16:50:00;;;;;;;6.00;2.80;;;;;;;;;;5019947;28;20295;-81
2021/07/30 16:52:31;;;;;;;6.97;4.43;;;;;;;;;;5012706;28;20617;-82
2021/07/30 16:54:58;;;;;;;8.97;5.07;;;;;;;;;;5014682;28;20315;-82
2021/07/30 16:57:26;;;;;;;5.57;3.70;;;;;;;;;;5008224;28;20218;-81
2021/07/30 16:59:53;;;;;;;4.33;3.57;;;;;;;;;;5012072;28;20303;-81
2021/07/30 17:02:20;;;;;;;7.80;3.77;;;;;;;;;;5011635;28;20211;-82
2021/07/30 17:04:47;;;;;;;6.43;2.83;;;;;;;;;;5010749;28;20731;-81
2021/07/30 17:07:14;;;;;;;4.30;3.00;;;;;;;;;;5006638;28;20219;-81
2021/07/30 17:09:43;;;;;;;6.93;3.17;;;;;;;;;;5007763;28;20299;-81
2021/07/30 17:12:10;;;;;;;4.87;3.10;;;;;;;;;;5005376;28;20217;-81
2021/07/30 17:14:37;;;;;;;6.13;3.30;;;;;;;;;;5062109;23;20227;-85
2021/07/30 17:17:07;;;;;;;9.10;3.17;;;;;;;;;;5032416;28;20238;-84
2021/07/30 17:19:40;;;;;;;6.40;2.87;;;;;;;;;;5029805;28;20230;-85
2021/07/30 17:22:11;;;;;;;7.03;3.13;;;;;;;;;;5027422;28;20664;-86
2021/07/30 23:16:28;;;;;;;2.33;0.87;;;;;;;;;;5032343;22;20262;-76
2021/07/30 23:18:55;;;;;;;4.17;1.00;;;;;;;;;;5014536;28;20219;-76
2021/07/30 23:21:22;;;;;;;8.53;1.10;;;;;;;;;;5012110;28;20319;-76
2021/07/30 23:23:49;;;;;;;7.53;1.40;;;;;;;;;;5016188;28;20222;-76
2021/07/30 23:26:16;;;;;;;2.20;1.00;;;;;;;;;;5021438;28;20582;-76
2021/07/30 23:28:44;;;;;;;6.27;1.10;;;;;;;;;;5019326;28;20234;-76
2021/07/30 23:31:11;;;;;;;5.03;0.90;;;;;;;;;;5018081;28;20268;-76
2021/07/30 23:33:40;;;;;;;4.10;1.60;;;;;;;;;;5021575;28;20224;-76
2021/07/30 23:36:08;;;;;;;3.03;0.90;;;;;;;;;;5017422;28;20298;-76
2021/07/30 23:38:36;;;;;;;3.13;1.23;;;;;;;;;;5017925;28;20423;-76
2021/07/30 23:41:07;;;;;;;3.57;0.97;;;;;;;;;;5030594;28;20290;-75
2021/07/30 23:43:34;;;;;;;3.10;0.90;;;;;;;;;;5037354;28;20654;-76
2021/07/30 23:46:05;;;;;;;2.80;1.10;;;;;;;;;;5017532;28;20212;-76
2021/07/30 23:48:32;;;;;;;3.17;0.93;;;;;;;;;;5017298;28;20218;-76
2021/07/30 23:51:01;;;;;;;4.87;1.10;;;;;;;;;;5023050;28;20733;-75
2021/07/30 23:53:28;;;;;;;2.27;1.37;;;;;;;;;;5017520;28;20211;-76
2021/07/30 23:55:55;;;;;;;3.20;0.90;;;;;;;;;;5021958;28;20729;-76
2021/07/30 23:58:22;;;;;;;4.87;0.90;;;;;;;;;;5018197;28;20311;-76
